Washington Island, WI (54246)

1:01 PM CDT on July 24, 2014 (GMT -0500)
South Shore Drive (KWIWASHI3) Elev 604 ft | 45.34 °N, 86.89 °W | Change Station

Current weather conditions updated 30 seconds ago

Clear
Clear
74.6 °F
Feels Like 77 °F
N
0.0
Wind Variable Wind from NNW
Gusts 0.0 mph

Today is forecast to be nearly the same temperature as yesterday.

Today
High -- | Low -- °F
--% Chance of Precip.
Yesterday
High -- | Low -- °F
Precip. -- in
5:22 AM 8:24 PM
Waning Crescent, 4% visible
Pressure 30.12 in
Visibility 10.0 miles
Clouds Clear
Heat Index 77 °F
Dew Point 60 °F
Humidity 61%
Rainfall 0.00 in
Snow Depth Not available.
UV 5.9 out of 12
Pollen 6.00 out of 12
Air Quality Not available.
Flu Activity Not available.
METAR KESC 241755Z AUTO 17010G15KT 10SM CLR 21/10 A3012 RMK AO1 10210 20120 57014

More Conditions Fewer Conditions

Pressure 30.12 in
Visibility 10.0 miles
Clouds Clear
Heat Index 77 °F
Dew Point 60 °F
Humidity 61%
Rainfall 0.00 in
Snow Depth Not available.
UV 5.9 out of 12
Pollen 6.00 out of 12
Air Quality Not available.
Flu Activity Not available.
METAR KESC 241755Z AUTO 17010G15KT 10SM CLR 21/10 A3012 RMK AO1 10210 20120 57014

More Conditions Fewer Conditions

10-Day Weather Forecast

Almanac

Astronomy

Jul. 24, 2014 Rise Set
Actual Time 5:22 AM CDT 8:24 PM CDT
Civil Twilight 4:47 AM CDT 8:59 PM CDT
Nautical Twilight 4:02 AM CDT 9:44 PM CDT
Astronomical Twilight 3:08 AM CDT 10:38 PM CDT
Moon 3:31 AM CDT 6:37 PM CDT
Length of Visible Light 16h 11m
Length of Day
15h 01m
Tomorrow will be 2m 9s shorter.
Waning Crescent, 4% of the Moon is Illuminated
Today
Waning Crescent
Jul 26
New
Aug 3
First Quarter
Aug 10
Full
Aug 17
Last Quarter

Today's Extremes

State Highs State Lows

Community

WunderPhotos

Upload Photos

1,737,083 photos uploaded!

Nearby

Snow Depth

Station Depth Elevation
No new snow has been reported.

Earthquake Activity

City Distance Mag. Time & Date
No recent earthquake activity has been reported nearby.
Minimum magnitude displayed is 2.5.

Coastal Water Temperatures

Place Temperature
No Stations Reporting

Nearby Weather Stations

Station Location Temp. Heat Index Dew Point Humidity Wind Precip. Elev Updated Type
South Shore Drive, Washington Island, WI 74.6 °F 77 °F 60 °F 61% NNW  at  0.0 mph 0.00 in / hr 604 ft 1:00 PM CDT Normal
MARITIME , Ellison Bay, WI 67 °F - - - NNW  at  6 mph 0.00 in / hr 583 ft 11:40 AM CDT MADIS
2 miles North of town, Sister Bay, WI 69.3 °F - 47 °F 45% West  at  4.0 mph 0.00 in / hr 710 ft 12:48 PM CDT Normal
Sister Bay Marina, Sister Bay, WI 67.7 °F - 51 °F 55% NNW  at  6.0 mph 0.00 in / hr 581 ft 1:00 PM CDT Normal
HADS FAIRPORT , Garden, MI 61 °F - - - SSW  at  9 mph 0.00 in / hr 605 ft 12:40 PM EDT MADIS
Breezy Point, Escanaba, MI 67.1 °F - 59 °F 75% South  at  4.0 mph 0.00 in / hr 574 ft 2:00 PM EDT Rapid Fire
MARITIME , Rogers City, MI 63 °F - - - North  at  5 mph 0.00 in / hr 577 ft 1:00 PM EDT MADIS

Show More Stations Show Fewer Stations